createdAt,value
2019-03-22T00:02:00.585Z,11.44
2019-03-22T00:04:29.048Z,11.44
2019-03-22T00:06:57.555Z,11.44
2019-03-22T00:09:26.019Z,11.44
2019-03-22T00:11:54.550Z,11.44
2019-03-22T00:14:23.063Z,11.42
2019-03-22T00:16:51.536Z,11.42
2019-03-22T00:19:20.004Z,11.40
2019-03-22T00:21:48.477Z,11.40
2019-03-22T00:24:16.940Z,11.39
2019-03-22T00:26:45.478Z,11.37
2019-03-22T00:29:13.969Z,11.34
2019-03-22T00:31:42.434Z,11.33
2019-03-22T00:34:10.889Z,11.32
2019-03-22T00:36:39.386Z,11.31
2019-03-22T00:39:07.937Z,11.29
2019-03-22T00:41:36.396Z,11.28
2019-03-22T00:44:04.909Z,11.27
2019-03-22T00:46:33.385Z,11.26
2019-03-22T00:49:01.859Z,11.24
2019-03-22T00:51:30.346Z,11.24
2019-03-22T00:53:58.797Z,11.24
2019-03-22T00:56:27.268Z,11.23
2019-03-22T00:58:55.769Z,11.22
2019-03-22T01:01:24.301Z,11.19
2019-03-22T01:03:52.769Z,11.17
2019-03-22T01:06:21.272Z,11.16
2019-03-22T01:08:49.736Z,11.13
2019-03-22T01:11:18.198Z,11.12
2019-03-22T01:13:46.683Z,11.10
2019-03-22T01:16:15.153Z,11.09
2019-03-22T01:18:43.608Z,11.10
2019-03-22T01:21:12.120Z,11.11
2019-03-22T01:23:40.587Z,11.12
2019-03-22T01:26:09.056Z,11.11
2019-03-22T01:28:38.588Z,11.11
2019-03-22T01:31:07.051Z,11.09
2019-03-22T01:33:35.521Z,11.09
2019-03-22T01:36:04.199Z,11.09
2019-03-22T01:38:32.715Z,11.10
2019-03-22T01:41:01.176Z,11.11
2019-03-22T01:43:29.684Z,11.11
2019-03-22T01:45:58.157Z,11.12
2019-03-22T01:48:26.617Z,11.10
2019-03-22T01:50:55.116Z,11.09
2019-03-22T01:53:23.574Z,11.10
2019-03-22T01:55:52.025Z,11.10
2019-03-22T01:58:20.603Z,11.11
2019-03-22T02:00:49.065Z,11.10
2019-03-22T02:03:17.529Z,11.10
2019-03-22T02:05:46.035Z,11.10
2019-03-22T02:08:14.535Z,11.10
2019-03-22T02:10:43.002Z,11.08
2019-03-22T02:13:11.502Z,11.10
2019-03-22T02:15:39.963Z,11.10
2019-03-22T02:18:08.592Z,11.10
2019-03-22T02:20:37.093Z,11.11
2019-03-22T02:23:05.544Z,11.10
2019-03-22T02:25:33.993Z,11.10
2019-03-22T02:28:04.428Z,11.10
2019-03-22T02:30:32.951Z,11.12
2019-03-22T02:33:01.491Z,11.13
2019-03-22T02:35:29.999Z,11.16
2019-03-22T02:37:58.449Z,11.15
2019-03-22T02:40:26.920Z,11.16
2019-03-22T02:42:55.493Z,11.19
2019-03-22T02:45:23.967Z,11.21
2019-03-22T02:47:52.435Z,11.22
2019-03-22T02:50:20.917Z,11.21
2019-03-22T02:52:49.397Z,11.17
2019-03-22T02:55:17.881Z,11.14
2019-03-22T02:57:46.474Z,11.12
2019-03-22T03:00:16.470Z,11.11
2019-03-22T03:02:45.138Z,11.10
2019-03-22T03:05:15.169Z,11.09
2019-03-22T03:07:43.781Z,11.09
2019-03-22T03:10:16.390Z,11.08
2019-03-22T03:12:45.275Z,11.07
2019-03-22T03:15:16.764Z,11.05
2019-03-22T03:17:45.366Z,11.04
2019-03-22T03:20:15.314Z,11.01
2019-03-22T03:22:43.775Z,11.02
2019-03-22T03:25:12.980Z,11.01
2019-03-22T03:27:41.466Z,11.01
2019-03-22T03:30:20.564Z,11.03
2019-03-22T03:32:49.333Z,11.01
2019-03-22T03:35:18.724Z,11.00
2019-03-22T03:37:47.264Z,10.97
2019-03-22T03:40:16.299Z,10.97
2019-03-22T03:42:44.774Z,10.98
2019-03-22T03:45:37.583Z,11.01
2019-03-22T03:48:08.587Z,11.02
2019-03-22T03:50:37.175Z,11.02
2019-03-22T03:53:06.441Z,11.03
2019-03-22T03:55:34.911Z,11.03
2019-03-22T03:58:03.546Z,11.04
2019-03-22T04:00:32.047Z,11.05
2019-03-22T04:03:00.525Z,11.06
2019-03-22T04:05:29.060Z,11.06
2019-03-22T04:07:57.562Z,11.04
2019-03-22T04:10:26.095Z,11.03
2019-03-22T04:12:54.559Z,10.99
2019-03-22T04:15:23.057Z,10.96
2019-03-22T04:17:51.546Z,10.94
2019-03-22T04:20:20.001Z,10.93
2019-03-22T04:22:48.529Z,10.91
2019-03-22T04:25:17.009Z,10.90
2019-03-22T04:27:45.504Z,10.87
2019-03-22T04:30:14.072Z,10.85
2019-03-22T04:32:42.583Z,10.83
2019-03-22T04:35:12.180Z,10.84
2019-03-22T04:37:40.692Z,10.84
2019-03-22T04:40:25.797Z,10.84
2019-03-22T04:42:54.288Z,10.87
2019-03-22T04:45:23.204Z,10.88
2019-03-22T04:48:02.828Z,10.89
2019-03-22T04:50:32.560Z,10.89
2019-03-22T04:53:01.092Z,10.89
2019-03-22T04:55:29.784Z,10.92
2019-03-22T04:57:58.993Z,10.95
2019-03-22T05:00:27.613Z,10.98
2019-03-22T05:02:56.197Z,10.99
2019-03-22T05:05:25.129Z,11.01
2019-03-22T05:07:53.662Z,11.02
2019-03-22T05:10:23.155Z,11.05
2019-03-22T05:12:52.494Z,11.07
2019-03-22T05:15:22.044Z,11.08
2019-03-22T05:17:50.543Z,11.08
2019-03-22T05:20:20.459Z,11.08
2019-03-22T05:22:51.067Z,11.07
2019-03-22T05:25:20.617Z,11.07
2019-03-22T05:27:49.989Z,11.06
2019-03-22T05:30:56.933Z,11.06
2019-03-22T05:33:25.382Z,11.07
2019-03-22T05:35:53.864Z,11.06
2019-03-22T05:38:24.119Z,11.05
2019-03-22T05:40:52.590Z,11.02
2019-03-22T05:43:21.091Z,10.96
2019-03-22T05:45:49.605Z,10.94
2019-03-22T05:48:18.089Z,10.93
2019-03-22T05:50:46.547Z,10.94
2019-03-22T05:53:15.080Z,10.93
2019-03-22T05:55:43.556Z,10.93
2019-03-22T05:58:12.036Z,10.94
2019-03-22T06:00:40.534Z,10.94
2019-03-22T06:03:09.136Z,10.92
2019-03-22T06:05:37.610Z,10.92
2019-03-22T06:08:06.292Z,10.93
2019-03-22T06:10:34.763Z,10.94
2019-03-22T06:13:03.240Z,10.95
2019-03-22T06:15:31.736Z,10.97
2019-03-22T06:18:00.216Z,10.99
2019-03-22T06:20:28.690Z,10.97
2019-03-22T06:22:57.191Z,10.97
2019-03-22T06:25:25.675Z,10.93
2019-03-22T06:27:54.135Z,10.92
2019-03-22T06:30:22.673Z,10.91
2019-03-22T06:32:51.154Z,10.91
2019-03-22T06:35:19.625Z,10.91
2019-03-22T06:37:48.123Z,10.92
2019-03-22T06:40:16.707Z,10.93
2019-03-22T06:42:45.165Z,10.93
2019-03-22T06:45:13.851Z,10.93
2019-03-22T06:47:42.322Z,10.92
2019-03-22T06:50:11.199Z,10.89
2019-03-22T06:52:39.689Z,10.86
2019-03-22T06:55:08.320Z,10.82
2019-03-22T06:57:36.797Z,10.81
2019-03-22T07:00:07.710Z,10.81
2019-03-22T07:02:36.190Z,10.33
2019-03-22T07:05:06.503Z,10.80
2019-03-22T07:07:35.017Z,10.80
2019-03-22T07:10:05.228Z,10.81
2019-03-22T07:12:33.712Z,10.80
2019-03-22T07:15:02.210Z,10.79
2019-03-22T07:17:30.675Z,10.79
2019-03-22T07:19:59.138Z,10.81
2019-03-22T07:22:27.651Z,10.82
2019-03-22T07:24:56.116Z,10.84
2019-03-22T07:27:24.805Z,10.86
2019-03-22T07:29:53.301Z,10.88
2019-03-22T07:32:21.768Z,10.88
2019-03-22T07:34:50.245Z,10.90
2019-03-22T07:37:18.780Z,10.92
2019-03-22T07:39:47.396Z,10.93
2019-03-22T07:42:17.558Z,10.97
2019-03-22T07:44:46.355Z,11.00
2019-03-22T07:47:14.816Z,11.03
2019-03-22T07:49:43.302Z,11.05
2019-03-22T07:52:11.811Z,11.08
2019-03-22T07:54:40.280Z,11.10
2019-03-22T07:57:08.757Z,11.12
2019-03-22T07:59:37.263Z,11.14
2019-03-22T08:02:05.806Z,11.16
2019-03-22T08:04:34.280Z,11.18
2019-03-22T08:07:02.855Z,11.22
2019-03-22T08:09:31.338Z,11.25
2019-03-22T08:11:59.975Z,11.32
2019-03-22T08:14:28.491Z,11.35
2019-03-22T08:16:56.954Z,11.39
2019-03-22T08:19:25.436Z,11.43
2019-03-22T08:21:53.950Z,11.50
2019-03-22T08:24:22.429Z,11.56
2019-03-22T08:26:50.943Z,11.58
2019-03-22T08:29:19.430Z,11.62
2019-03-22T08:31:47.884Z,11.68
2019-03-22T08:34:16.411Z,11.72
2019-03-22T08:36:44.938Z,11.78
2019-03-22T08:39:13.438Z,11.85
2019-03-22T08:41:41.892Z,11.91
2019-03-22T08:44:10.626Z,11.96
2019-03-22T08:46:39.287Z,11.99
2019-03-22T08:49:09.488Z,12.02
2019-03-22T08:51:37.970Z,12.05
2019-03-22T08:54:06.513Z,12.10
2019-03-22T08:56:36.210Z,12.13
2019-03-22T08:59:04.917Z,12.16
2019-03-22T09:01:33.443Z,12.16
2019-03-22T09:04:01.943Z,12.16
2019-03-22T09:06:30.524Z,12.18
2019-03-22T09:08:58.952Z,12.19
2019-03-22T09:11:27.432Z,12.22
2019-03-22T09:13:55.931Z,12.29
2019-03-22T09:16:24.415Z,12.36
2019-03-22T09:18:52.883Z,12.41
2019-03-22T09:21:21.463Z,12.47
2019-03-22T09:23:50.009Z,12.52
2019-03-22T09:26:20.074Z,12.57
2019-03-22T09:28:48.889Z,12.61
2019-03-22T09:31:17.355Z,12.65
2019-03-22T09:33:45.871Z,12.70
2019-03-22T09:36:14.410Z,12.77
2019-03-22T09:38:44.611Z,12.80
2019-03-22T09:41:13.074Z,12.83
2019-03-22T09:43:41.557Z,12.84
2019-03-22T09:46:11.119Z,12.82
2019-03-22T09:48:39.615Z,12.80
2019-03-22T09:51:08.085Z,12.80
2019-03-22T09:53:36.636Z,12.81
2019-03-22T09:56:05.130Z,12.83
2019-03-22T09:58:33.601Z,12.83
2019-03-22T10:01:02.137Z,12.84
2019-03-22T10:03:30.670Z,12.84
2019-03-22T10:05:59.136Z,12.87
2019-03-22T10:08:27.620Z,12.89
2019-03-22T10:10:56.148Z,12.82
2019-03-22T10:13:24.636Z,12.93
2019-03-22T10:15:53.102Z,12.95
2019-03-22T10:18:21.618Z,12.96
2019-03-22T10:20:50.087Z,13.01
2019-03-22T10:23:18.566Z,13.06
2019-03-22T10:25:47.060Z,13.12
2019-03-22T10:28:15.561Z,13.19
2019-03-22T10:30:44.056Z,13.25
2019-03-22T10:33:22.102Z,13.30
2019-03-22T10:35:42.749Z,13.37
2019-03-22T10:38:16.434Z,13.40
2019-03-22T10:40:41.451Z,13.44
2019-03-22T10:43:09.909Z,13.46
2019-03-22T10:45:38.369Z,13.49
2019-03-22T10:48:07.100Z,13.51
2019-03-22T10:50:35.595Z,13.55
2019-03-22T10:53:04.092Z,13.56
2019-03-22T10:55:35.356Z,13.56
2019-03-22T10:58:02.745Z,13.54
2019-03-22T11:00:31.219Z,13.52
2019-03-22T11:02:59.814Z,13.51
2019-03-22T11:05:28.274Z,13.51
2019-03-22T11:07:56.781Z,13.51
2019-03-22T11:10:25.449Z,13.53
2019-03-22T11:12:53.927Z,13.53
2019-03-22T11:15:23.981Z,13.55
2019-03-22T11:17:52.813Z,13.54
2019-03-22T11:20:21.272Z,13.53
2019-03-22T11:22:49.745Z,13.50
2019-03-22T11:25:18.263Z,13.50
2019-03-22T11:27:46.740Z,13.50
2019-03-22T11:30:19.291Z,13.54
2019-03-22T11:32:47.881Z,13.56
2019-03-22T11:35:16.420Z,13.56
2019-03-22T11:37:44.897Z,13.59
2019-03-22T11:40:15.643Z,13.60
2019-03-22T11:42:44.115Z,13.66
2019-03-22T11:45:18.767Z,13.68
2019-03-22T11:47:47.339Z,13.72
2019-03-22T11:50:16.169Z,13.75
2019-03-22T11:52:44.697Z,13.78
2019-03-22T11:55:14.441Z,13.79
2019-03-22T11:57:42.914Z,13.79
2019-03-22T12:00:17.059Z,13.79
2019-03-22T12:02:45.578Z,13.82
2019-03-22T12:05:15.098Z,13.85
2019-03-22T12:07:43.571Z,13.85
2019-03-22T12:10:14.684Z,13.87
2019-03-22T12:12:43.224Z,13.88
2019-03-22T12:15:14.144Z,13.87
2019-03-22T12:17:42.631Z,13.89
2019-03-22T12:20:22.187Z,13.90
2019-03-22T12:22:50.834Z,13.91
2019-03-22T12:25:24.460Z,13.92
2019-03-22T12:27:52.928Z,13.92
2019-03-22T12:30:21.539Z,13.93
2019-03-22T12:32:50.018Z,13.95
2019-03-22T12:35:18.863Z,13.95
2019-03-22T12:37:47.373Z,13.96
2019-03-22T12:40:22.910Z,14.02
2019-03-22T12:42:51.418Z,14.05
2019-03-22T12:45:28.194Z,14.10
2019-03-22T12:47:56.770Z,14.17
2019-03-22T12:50:25.662Z,14.23
2019-03-22T12:52:54.137Z,14.30
2019-03-22T12:55:22.639Z,14.34
2019-03-22T12:57:51.178Z,14.39
2019-03-22T13:00:23.539Z,14.44
2019-03-22T13:02:52.429Z,14.46
2019-03-22T13:05:22.063Z,14.47
2019-03-22T13:07:50.877Z,14.45
2019-03-22T13:10:27.427Z,14.45
2019-03-22T13:12:56.029Z,14.42
2019-03-22T13:15:24.494Z,14.43
2019-03-22T13:17:53.020Z,14.44
2019-03-22T13:20:21.628Z,14.46
2019-03-22T13:22:50.098Z,14.47
2019-03-22T13:25:21.209Z,14.46
2019-03-22T13:27:49.850Z,14.45
2019-03-22T13:30:30.546Z,14.47
2019-03-22T13:32:59.174Z,14.50
2019-03-22T13:35:27.723Z,14.52
2019-03-22T13:37:56.382Z,14.54
2019-03-22T13:40:24.849Z,14.52
2019-03-22T13:42:53.397Z,14.49
2019-03-22T13:45:21.968Z,14.45
2019-03-22T13:47:50.484Z,14.43
2019-03-22T13:50:18.996Z,14.44
2019-03-22T13:52:48.573Z,14.47
2019-03-22T13:55:17.041Z,14.51
2019-03-22T13:57:45.510Z,14.53
2019-03-22T14:00:18.128Z,14.53
2019-03-22T14:02:46.596Z,14.53
2019-03-22T14:05:15.215Z,14.56
2019-03-22T14:07:43.803Z,14.58
2019-03-22T14:10:31.345Z,14.55
2019-03-22T14:13:01.073Z,14.32
2019-03-22T14:15:29.927Z,14.43
2019-03-22T14:17:58.860Z,14.37
2019-03-22T14:20:27.363Z,14.35
2019-03-22T14:22:55.908Z,14.31
2019-03-22T14:25:24.397Z,14.27
2019-03-22T14:27:53.822Z,14.28
2019-03-22T14:30:22.283Z,14.28
2019-03-22T14:32:50.753Z,14.30
2019-03-22T14:35:19.265Z,14.33
2019-03-22T14:37:47.751Z,14.33
2019-03-22T14:40:16.305Z,14.35
2019-03-22T14:42:44.847Z,14.36
2019-03-22T14:45:14.873Z,14.37
2019-03-22T14:47:43.713Z,14.38
2019-03-22T14:50:12.293Z,14.37
2019-03-22T14:52:40.755Z,14.34
2019-03-22T14:55:09.448Z,14.28
2019-03-22T14:57:47.836Z,14.23
2019-03-22T15:00:10.590Z,14.22
2019-03-22T15:02:39.059Z,14.21
2019-03-22T15:05:07.621Z,14.23
2019-03-22T15:07:36.098Z,14.23
2019-03-22T15:10:07.402Z,14.25
2019-03-22T15:12:35.920Z,14.25
2019-03-22T15:15:08.447Z,14.26
2019-03-22T15:17:38.594Z,14.24
2019-03-22T15:20:12.141Z,14.20
2019-03-22T15:22:47.973Z,14.19
2019-03-22T15:25:20.562Z,14.15
2019-03-22T15:28:08.925Z,14.12
2019-03-22T15:30:57.243Z,14.11
2019-03-22T15:33:43.583Z,14.05
2019-03-22T15:36:25.780Z,14.03
2019-03-22T15:38:56.063Z,13.99
2019-03-22T15:41:24.557Z,13.92
2019-03-22T15:43:53.086Z,13.88
2019-03-22T15:46:21.601Z,13.86
2019-03-22T15:48:50.103Z,13.84
2019-03-22T15:51:18.611Z,13.84
2019-03-22T15:53:47.082Z,13.82
2019-03-22T15:56:16.587Z,13.81
2019-03-22T15:58:45.100Z,13.77
2019-03-22T16:01:13.582Z,13.71
2019-03-22T16:03:44.434Z,13.63
2019-03-22T16:06:12.360Z,13.56
2019-03-22T16:08:40.853Z,13.51
2019-03-22T16:11:09.350Z,13.47
2019-03-22T16:13:37.843Z,13.44
2019-03-22T16:16:06.302Z,13.45
2019-03-22T16:18:34.756Z,13.45
2019-03-22T16:21:03.270Z,13.43
2019-03-22T16:23:31.731Z,13.41
2019-03-22T16:26:00.199Z,13.38
2019-03-22T16:28:28.701Z,13.34
2019-03-22T16:30:57.183Z,13.28
2019-03-22T16:33:25.654Z,13.22
2019-03-22T16:35:54.173Z,13.15
2019-03-22T16:38:22.790Z,13.09
2019-03-22T16:40:51.251Z,13.06
2019-03-22T16:43:19.742Z,13.01
2019-03-22T16:45:48.217Z,12.96
2019-03-22T16:48:16.678Z,12.94
2019-03-22T16:50:45.172Z,12.93
2019-03-22T16:53:13.646Z,12.90
2019-03-22T16:55:42.110Z,12.85
2019-03-22T16:58:10.635Z,12.79
2019-03-22T17:00:39.091Z,12.74
2019-03-22T17:03:07.631Z,12.69
2019-03-22T17:05:36.133Z,12.64
2019-03-22T17:08:04.769Z,12.60
2019-03-22T17:10:33.241Z,12.57
2019-03-22T17:13:01.751Z,12.54
2019-03-22T17:15:30.230Z,12.53
2019-03-22T17:17:58.688Z,12.52
2019-03-22T17:20:27.192Z,12.50
2019-03-22T17:22:55.659Z,12.47
2019-03-22T17:25:24.134Z,12.42
2019-03-22T17:27:52.624Z,12.39
2019-03-22T17:30:21.653Z,12.35
2019-03-22T17:32:50.133Z,12.33
2019-03-22T17:35:18.642Z,12.30
2019-03-22T17:37:47.112Z,12.27
2019-03-22T17:40:15.652Z,12.27
2019-03-22T17:42:44.170Z,12.26
2019-03-22T17:45:15.628Z,12.25
2019-03-22T17:47:44.147Z,12.24
2019-03-22T17:50:13.783Z,12.26
2019-03-22T17:52:42.326Z,12.25
2019-03-22T17:55:11.537Z,12.25
2019-03-22T17:57:41.006Z,12.26
2019-03-22T18:00:30.384Z,12.26
2019-03-22T18:02:58.887Z,12.25
2019-03-22T18:05:27.354Z,12.22
2019-03-22T18:07:55.821Z,12.18
2019-03-22T18:10:24.341Z,12.14
2019-03-22T18:12:52.818Z,12.10
2019-03-22T18:15:21.279Z,12.07
2019-03-22T18:17:49.818Z,12.04
2019-03-22T18:20:18.271Z,12.00
2019-03-22T18:22:46.743Z,11.98
2019-03-22T18:25:15.945Z,11.95
2019-03-22T18:27:44.364Z,11.94
2019-03-22T18:30:14.060Z,11.94
2019-03-22T18:32:42.546Z,11.93
2019-03-22T18:35:11.083Z,11.92
2019-03-22T18:37:39.544Z,11.92
2019-03-22T18:40:12.759Z,11.93
2019-03-22T18:42:41.230Z,11.93
2019-03-22T18:45:11.952Z,11.90
2019-03-22T18:47:41.193Z,11.86
2019-03-22T18:50:10.887Z,11.82
2019-03-22T18:52:39.381Z,11.79
2019-03-22T18:55:08.211Z,11.79
2019-03-22T18:57:36.753Z,11.78
2019-03-22T19:00:08.642Z,11.79
2019-03-22T19:02:37.174Z,11.77
2019-03-22T19:05:07.488Z,11.75
2019-03-22T19:07:35.968Z,11.73
2019-03-22T19:10:15.290Z,11.70
2019-03-22T19:12:43.769Z,11.67
2019-03-22T19:15:13.499Z,11.65
2019-03-22T19:17:42.074Z,11.66
2019-03-22T19:20:14.730Z,11.66
2019-03-22T19:22:43.192Z,11.67
2019-03-22T19:25:14.324Z,11.68
2019-03-22T19:27:42.354Z,11.69
2019-03-22T19:30:15.733Z,11.71
2019-03-22T19:32:44.314Z,11.73
2019-03-22T19:35:13.218Z,11.74
2019-03-22T19:37:41.683Z,11.71
2019-03-22T19:40:12.229Z,11.69
2019-03-22T19:42:40.684Z,11.66
2019-03-22T19:45:11.192Z,11.63
2019-03-22T19:47:39.706Z,11.59
2019-03-22T19:50:13.741Z,11.57
2019-03-22T19:52:43.019Z,11.54
2019-03-22T19:55:11.712Z,11.50
2019-03-22T19:57:40.192Z,11.46
2019-03-22T20:00:19.132Z,11.44
2019-03-22T20:02:49.297Z,11.44
2019-03-22T20:05:29.255Z,11.44
2019-03-22T20:07:57.795Z,11.44
2019-03-22T20:10:26.266Z,11.40
2019-03-22T20:12:54.769Z,11.39
2019-03-22T20:15:23.222Z,11.39
2019-03-22T20:17:51.722Z,11.38
2019-03-22T20:20:20.281Z,11.37
2019-03-22T20:22:48.768Z,11.34
2019-03-22T20:25:17.225Z,11.32
2019-03-22T20:27:45.752Z,11.28
2019-03-22T20:30:18.588Z,11.28
2019-03-22T20:32:47.047Z,11.26
2019-03-22T20:35:17.070Z,11.25
2019-03-22T20:37:45.682Z,11.24
2019-03-22T20:40:16.243Z,11.24
2019-03-22T20:42:44.790Z,11.23
2019-03-22T20:45:23.531Z,11.23
2019-03-22T20:47:43.625Z,11.21
2019-03-22T20:50:12.202Z,11.21
2019-03-22T20:52:40.687Z,11.19
2019-03-22T20:55:09.902Z,11.17
2019-03-22T20:57:38.423Z,11.16
2019-03-22T21:00:12.678Z,11.11
2019-03-22T21:02:41.332Z,11.08
2019-03-22T21:05:10.461Z,11.03
2019-03-22T21:07:38.915Z,11.00
2019-03-22T21:10:08.604Z,10.97
2019-03-22T21:12:37.121Z,10.92
2019-03-22T21:15:08.282Z,10.88
2019-03-22T21:17:36.762Z,10.83
2019-03-22T21:20:09.713Z,10.77
2019-03-22T21:22:38.357Z,10.73
2019-03-22T21:25:11.012Z,10.69
2019-03-22T21:27:39.523Z,10.66
2019-03-22T21:30:15.398Z,10.64
2019-03-22T21:32:45.475Z,10.60
2019-03-22T21:35:22.627Z,10.57
2019-03-22T21:37:44.400Z,10.52
2019-03-22T21:40:12.944Z,10.47
2019-03-22T21:42:41.467Z,10.43
2019-03-22T21:45:11.066Z,10.38
2019-03-22T21:47:40.102Z,10.36
2019-03-22T21:50:11.722Z,10.32
2019-03-22T21:52:40.183Z,10.31
2019-03-22T21:55:09.183Z,10.29
2019-03-22T21:57:37.672Z,10.30
2019-03-22T22:00:08.992Z,10.31
2019-03-22T22:02:37.466Z,10.31
2019-03-22T22:05:07.523Z,10.28
2019-03-22T22:07:36.002Z,10.24
2019-03-22T22:10:09.327Z,10.19
2019-03-22T22:12:38.028Z,10.15
2019-03-22T22:15:09.575Z,10.12
2019-03-22T22:17:39.328Z,10.08
2019-03-22T22:20:07.968Z,10.04
2019-03-22T22:22:36.431Z,9.98
2019-03-22T22:25:06.796Z,9.92
2019-03-22T22:27:35.489Z,9.88
2019-03-22T22:30:08.968Z,9.84
2019-03-22T22:32:37.447Z,9.81
2019-03-22T22:35:07.692Z,9.77
2019-03-22T22:37:36.156Z,9.72
2019-03-22T22:40:12.282Z,9.68
2019-03-22T22:42:40.748Z,9.64
2019-03-22T22:45:10.905Z,9.59
2019-03-22T22:47:39.464Z,9.53
2019-03-22T22:50:11.782Z,9.48
2019-03-22T22:52:40.236Z,9.45
2019-03-22T22:55:10.041Z,9.41
2019-03-22T22:57:38.497Z,9.39
2019-03-22T23:00:15.337Z,9.34
2019-03-22T23:02:44.458Z,9.32
2019-03-22T23:05:14.027Z,9.28
2019-03-22T23:07:42.847Z,9.22
2019-03-22T23:10:12.837Z,9.18
2019-03-22T23:12:42.049Z,9.13
2019-03-22T23:15:10.905Z,9.09
2019-03-22T23:17:39.372Z,9.05
2019-03-22T23:20:09.813Z,9.00
2019-03-22T23:22:38.282Z,8.95
2019-03-22T23:25:07.419Z,8.89
2019-03-22T23:27:36.869Z,8.85
2019-03-22T23:30:07.368Z,8.82
2019-03-22T23:32:35.864Z,8.80
2019-03-22T23:35:05.881Z,8.76
2019-03-22T23:37:34.357Z,8.74
2019-03-22T23:40:03.086Z,8.74
2019-03-22T23:42:31.596Z,8.73
2019-03-22T23:45:00.172Z,8.70
2019-03-22T23:47:28.724Z,8.69
2019-03-22T23:49:57.224Z,8.65
2019-03-22T23:52:25.687Z,8.63
2019-03-22T23:54:54.148Z,8.61
2019-03-22T23:57:22.657Z,8.57
2019-03-22T23:59:51.119Z,8.53
